createdAt,value
2023-04-18T00:06:57.614Z,11.54
2023-04-18T00:16:59.326Z,11.58
2023-04-18T00:27:01.960Z,11.51
2023-04-18T00:37:04.675Z,11.52
2023-04-18T00:47:06.757Z,11.53
2023-04-18T00:57:10.910Z,11.42
2023-04-18T01:07:12.639Z,11.32
2023-04-18T01:17:14.352Z,11.32
2023-04-18T01:27:17.150Z,11.28
2023-04-18T01:37:19.144Z,11.38
2023-04-18T01:47:20.916Z,11.41
2023-04-18T01:57:23.501Z,11.35
2023-04-18T02:07:25.906Z,11.40
2023-04-18T02:17:28.869Z,11.44
2023-04-18T02:27:31.610Z,11.42
2023-04-18T02:37:33.419Z,11.49
2023-04-18T02:47:51.161Z,11.48
2023-04-18T02:57:56.060Z,11.50
2023-04-18T03:07:57.846Z,11.43
2023-04-18T03:17:59.654Z,11.49
2023-04-18T03:28:04.670Z,11.46
2023-04-18T03:38:09.119Z,11.27
2023-04-18T03:48:10.814Z,11.09
2023-04-18T03:58:13.399Z,11.19
2023-04-18T04:08:16.922Z,11.31
2023-04-18T04:18:18.712Z,11.17
2023-04-18T04:28:28.975Z,11.06
2023-04-18T04:38:33.290Z,10.96
2023-04-18T04:48:36.010Z,10.96
2023-04-18T04:58:37.934Z,10.97
2023-04-18T05:08:40.196Z,11.03
2023-04-18T05:18:42.973Z,11.22
2023-04-18T05:28:45.169Z,11.65
2023-04-18T05:38:46.989Z,12.15
2023-04-18T05:48:48.738Z,12.65
2023-04-18T05:58:51.716Z,13.02
2023-04-18T06:08:54.663Z,13.51
2023-04-18T06:18:57.301Z,13.86
2023-04-18T06:28:59.823Z,14.42
2023-04-18T06:39:01.705Z,15.11
2023-04-18T06:49:03.964Z,15.81
2023-04-18T06:59:07.877Z,16.37
2023-04-18T07:09:09.685Z,16.30
2023-04-18T07:19:13.670Z,16.14
2023-04-18T07:29:16.576Z,16.53
2023-04-18T07:39:19.540Z,17.11
2023-04-18T07:49:27.354Z,18.01
2023-04-18T07:59:30.627Z,19.24
2023-04-18T08:09:32.220Z,19.08
2023-04-18T08:19:35.172Z,19.84
2023-04-18T08:29:36.832Z,19.47
2023-04-18T08:39:38.550Z,19.22
2023-04-18T08:49:40.431Z,19.06
2023-04-18T08:59:46.710Z,20.14
2023-04-18T09:09:54.763Z,19.53
2023-04-18T09:19:59.275Z,21.87
2023-04-18T09:30:03.326Z,21.44
2023-04-18T09:40:19.098Z,22.52
2023-04-18T09:50:38.197Z,22.64
2023-04-18T10:00:42.757Z,23.20
2023-04-18T10:10:46.731Z,25.24
2023-04-18T10:20:48.488Z,24.13
2023-04-18T10:31:03.119Z,23.83
2023-04-18T10:41:28.069Z,24.15
2023-04-18T10:51:31.019Z,22.62
2023-04-18T11:11:41.659Z,24.31
2023-04-18T11:21:44.748Z,23.77
2023-04-18T11:31:55.999Z,23.66
2023-04-18T11:42:06.361Z,22.43
2023-04-18T11:52:14.427Z,21.42
2023-04-18T12:02:17.575Z,27.51
2023-04-18T12:12:51.627Z,24.70
2023-04-18T12:22:55.110Z,29.27
2023-04-18T12:33:02.579Z,24.01
2023-04-18T12:43:04.214Z,20.76
2023-04-18T12:53:06.298Z,20.14
2023-04-18T13:03:37.291Z,32.79
2023-04-18T13:13:39.130Z,34.65
2023-04-18T13:23:41.390Z,26.47
2023-04-18T13:33:43.207Z,31.88
2023-04-18T13:43:47.532Z,34.92
2023-04-18T13:53:49.929Z,32.10
2023-04-18T14:03:52.315Z,32.28
2023-04-18T14:13:55.628Z,33.36
2023-04-18T14:24:01.633Z,33.14
2023-04-18T14:34:03.376Z,30.30
2023-04-18T14:44:05.111Z,29.24
2023-04-18T14:54:08.267Z,27.07
2023-04-18T15:04:10.111Z,27.67
2023-04-18T15:14:12.112Z,25.03
2023-04-18T15:24:16.360Z,23.83
2023-04-18T15:34:24.423Z,22.57
2023-04-18T15:44:26.701Z,28.87
2023-04-18T15:54:28.410Z,30.12
2023-04-18T16:04:32.832Z,30.36
2023-04-18T16:14:35.485Z,23.38
2023-04-18T16:24:37.848Z,19.68
2023-04-18T16:34:42.274Z,19.24
2023-04-18T16:44:45.324Z,18.94
2023-04-18T16:54:47.221Z,18.46
2023-04-18T17:04:49.829Z,17.65
2023-04-18T17:14:51.725Z,17.00
2023-04-18T17:24:57.961Z,16.62
2023-04-18T17:35:04.793Z,16.10
2023-04-18T17:45:08.751Z,15.66
2023-04-18T17:55:10.690Z,15.24
2023-04-18T18:05:16.885Z,14.79
2023-04-18T18:15:20.910Z,14.41
2023-04-18T18:25:24.728Z,14.09
2023-04-18T18:35:32.251Z,14.02
2023-04-18T18:45:49.267Z,14.18
2023-04-18T18:56:03.548Z,14.39
2023-04-18T19:06:09.141Z,14.28
2023-04-18T19:16:13.505Z,14.43
2023-04-18T19:26:17.088Z,14.24
2023-04-18T19:36:20.725Z,14.00
2023-04-18T19:46:24.071Z,13.85
2023-04-18T19:56:34.598Z,13.86
2023-04-18T20:06:37.216Z,14.03
2023-04-18T20:16:39.552Z,14.07
2023-04-18T20:26:45.185Z,13.95
2023-04-18T20:36:52.001Z,13.88
2023-04-18T20:46:55.788Z,13.89
2023-04-18T20:56:57.716Z,13.79
2023-04-18T21:07:02.751Z,13.62
2023-04-18T21:17:06.889Z,13.63
2023-04-18T21:27:10.541Z,13.57
2023-04-18T21:37:12.222Z,13.36
2023-04-18T21:47:16.648Z,13.29
2023-04-18T21:57:19.344Z,13.02
2023-04-18T22:07:21.613Z,12.96
2023-04-18T22:17:23.307Z,13.04
2023-04-18T22:27:25.186Z,12.94
2023-04-18T22:37:28.639Z,12.94
2023-04-18T22:47:31.708Z,12.99
2023-04-18T22:57:33.395Z,12.91
2023-04-18T23:07:35.810Z,12.79
2023-04-18T23:17:37.718Z,12.84
2023-04-18T23:27:41.509Z,12.67
2023-04-18T23:37:43.671Z,12.67
2023-04-18T23:47:45.844Z,12.70
2023-04-18T23:57:48.680Z,12.81
